createdAt,value
2023-04-25T00:02:10.004Z,101781.38
2023-04-25T00:04:39.542Z,101776.88
2023-04-25T00:07:08.154Z,101785.47
2023-04-25T00:09:37.778Z,101785.00
2023-04-25T00:12:06.293Z,101788.84
2023-04-25T00:14:36.846Z,101795.16
2023-04-25T00:17:05.559Z,101799.94
2023-04-25T00:19:33.865Z,101801.97
2023-04-25T00:22:01.956Z,101800.88
2023-04-25T00:24:30.140Z,101793.97
2023-04-25T00:26:59.926Z,101794.81
2023-04-25T00:29:28.228Z,101782.91
2023-04-25T00:31:56.480Z,101793.66
2023-04-25T00:34:24.750Z,101790.06
2023-04-25T00:36:53.070Z,101792.78
2023-04-25T00:39:21.785Z,101786.97
2023-04-25T00:41:54.278Z,101787.06
2023-04-25T00:44:24.456Z,101784.72
2023-04-25T00:46:53.673Z,101785.66
2023-04-25T00:49:22.034Z,101783.16
2023-04-25T00:51:50.807Z,101782.69
2023-04-25T00:54:19.182Z,101777.44
2023-04-25T00:56:47.556Z,101783.66
2023-04-25T00:59:18.059Z,101778.53
2023-04-25T01:01:47.811Z,101786.50
2023-04-25T01:04:16.360Z,101793.75
2023-04-25T01:06:44.872Z,101781.75
2023-04-25T01:09:13.839Z,101791.41
2023-04-25T01:11:42.326Z,101794.97
2023-04-25T01:14:10.702Z,101798.66
2023-04-25T01:16:39.304Z,101794.38
2023-04-25T01:19:13.428Z,101788.19
2023-04-25T01:21:43.225Z,101783.28
2023-04-25T01:24:11.494Z,101785.09
2023-04-25T01:26:41.278Z,101787.72
2023-04-25T01:29:10.362Z,101796.41
2023-04-25T01:31:39.135Z,101781.63
2023-04-25T01:34:07.280Z,101781.75
2023-04-25T01:36:36.907Z,101783.53
2023-04-25T01:39:07.602Z,101773.63
2023-04-25T01:41:36.735Z,101777.00
2023-04-25T01:44:05.424Z,101775.91
2023-04-25T01:46:33.980Z,101772.09
2023-04-25T01:49:02.500Z,101764.09
2023-04-25T01:51:31.080Z,101764.94
2023-04-25T01:54:00.860Z,101765.66
2023-04-25T01:56:34.573Z,101768.16
2023-04-25T01:59:02.980Z,101781.25
2023-04-25T02:01:31.256Z,101765.31
2023-04-25T02:04:00.356Z,101768.88
2023-04-25T02:06:28.819Z,101770.53
2023-04-25T02:08:57.081Z,101771.38
2023-04-25T02:11:25.410Z,101774.81
2023-04-25T02:13:55.083Z,101778.41
2023-04-25T02:16:23.357Z,101782.81
2023-04-25T02:18:53.902Z,101779.38
2023-04-25T02:21:22.106Z,101781.25
2023-04-25T02:23:53.359Z,101777.09
2023-04-25T02:26:22.145Z,101777.34
2023-04-25T02:28:50.663Z,101774.00
2023-04-25T02:31:20.364Z,101776.72
2023-04-25T02:33:48.985Z,101783.16
2023-04-25T02:36:17.250Z,101774.00
2023-04-25T02:38:45.408Z,101776.16
2023-04-25T02:41:13.691Z,101775.09
2023-04-25T02:43:42.004Z,101781.25
2023-04-25T02:46:10.238Z,101781.38
2023-04-25T02:48:40.200Z,101774.13
2023-04-25T02:51:08.949Z,101776.88
2023-04-25T02:53:37.079Z,101772.69
2023-04-25T02:56:05.734Z,101780.06
2023-04-25T02:58:33.956Z,101776.50
2023-04-25T03:01:02.126Z,101770.44
2023-04-25T03:03:30.528Z,101776.50
2023-04-25T03:06:00.529Z,101780.22
2023-04-25T03:08:33.424Z,101774.09
2023-04-25T03:11:01.855Z,101773.41
2023-04-25T03:13:31.046Z,101770.09
2023-04-25T03:15:59.485Z,101762.22
2023-04-25T03:18:27.629Z,101765.06
2023-04-25T03:20:56.141Z,101760.88
2023-04-25T03:23:26.158Z,101761.75
2023-04-25T03:25:54.448Z,101769.69
2023-04-25T03:28:22.652Z,101766.25
2023-04-25T03:30:50.884Z,101768.03
2023-04-25T03:33:19.012Z,101767.69
2023-04-25T03:35:47.189Z,101765.28
2023-04-25T03:38:15.440Z,101781.13
2023-04-25T03:40:45.152Z,101783.38
2023-04-25T03:43:13.452Z,101779.22
2023-04-25T03:45:42.180Z,101788.34
2023-04-25T03:48:10.428Z,101786.69
2023-04-25T03:50:38.604Z,101787.63
2023-04-25T03:53:07.167Z,101776.22
2023-04-25T03:55:35.426Z,101785.84
2023-04-25T03:58:05.091Z,101778.94
2023-04-25T04:00:33.527Z,101778.94
2023-04-25T04:03:01.786Z,101785.25
2023-04-25T04:05:30.092Z,101786.19
2023-04-25T04:07:58.382Z,101783.81
2023-04-25T04:10:27.194Z,101782.88
2023-04-25T04:12:55.354Z,101783.09
2023-04-25T04:15:25.044Z,101780.47
2023-04-25T04:17:53.430Z,101789.28
2023-04-25T04:20:21.792Z,101784.88
2023-04-25T04:22:50.055Z,101779.03
2023-04-25T04:25:19.178Z,101774.88
2023-04-25T04:27:47.451Z,101776.66
2023-04-25T04:30:16.097Z,101774.25
2023-04-25T04:32:45.989Z,101779.50
2023-04-25T04:35:14.693Z,101780.53
2023-04-25T04:37:43.224Z,101791.25
2023-04-25T04:40:12.202Z,101787.06
2023-04-25T04:42:40.548Z,101790.53
2023-04-25T04:45:09.685Z,101786.47
2023-04-25T04:47:38.050Z,101786.59
2023-04-25T04:50:09.722Z,101795.50
2023-04-25T04:52:38.634Z,101791.34
2023-04-25T04:55:09.186Z,101793.13
2023-04-25T04:57:38.066Z,101789.88
2023-04-25T05:00:09.153Z,101788.22
2023-04-25T05:02:37.542Z,101795.31
2023-04-25T05:05:08.682Z,101799.63
2023-04-25T05:07:36.844Z,101797.84
2023-04-25T05:10:05.993Z,101802.25
2023-04-25T05:12:35.289Z,101797.84
2023-04-25T05:15:05.217Z,101797.72
2023-04-25T05:17:33.934Z,101803.78
2023-04-25T05:20:02.866Z,101800.97
2023-04-25T05:22:32.620Z,101803.72
2023-04-25T05:25:00.917Z,101810.59
2023-04-25T05:27:29.291Z,101808.81
2023-04-25T05:29:57.537Z,101817.38
2023-04-25T05:32:26.295Z,101817.28
2023-04-25T05:34:54.831Z,101818.00
2023-04-25T05:37:25.586Z,101815.25
2023-04-25T05:39:55.549Z,101812.41
2023-04-25T05:42:23.839Z,101820.41
2023-04-25T05:44:52.010Z,101821.84
2023-04-25T05:47:20.299Z,101809.47
2023-04-25T05:49:48.813Z,101814.69
2023-04-25T05:52:17.224Z,101817.09
2023-04-25T05:54:45.402Z,101820.63
2023-04-25T05:57:23.351Z,101832.56
2023-04-25T05:59:51.872Z,101823.66
2023-04-25T06:02:20.363Z,101825.94
2023-04-25T06:04:48.823Z,101828.56
2023-04-25T06:07:17.192Z,101830.09
2023-04-25T06:09:45.634Z,101837.84
2023-04-25T06:12:13.972Z,101844.53
2023-04-25T06:14:43.573Z,101843.78
2023-04-25T06:17:11.779Z,101843.09
2023-04-25T06:19:39.900Z,101835.44
2023-04-25T06:22:08.520Z,101850.13
2023-04-25T06:24:36.977Z,101837.59
2023-04-25T06:27:05.286Z,101845.13
2023-04-25T06:29:33.459Z,101847.41
2023-04-25T06:32:03.072Z,101833.13
2023-04-25T06:34:31.232Z,101842.09
2023-04-25T06:36:59.518Z,101840.78
2023-04-25T06:39:27.877Z,101839.59
2023-04-25T06:41:56.143Z,101840.09
2023-04-25T06:44:27.232Z,101826.63
2023-04-25T06:46:55.833Z,101830.56
2023-04-25T06:49:25.441Z,101836.53
2023-04-25T06:51:53.824Z,101830.69
2023-04-25T06:54:22.166Z,101831.78
2023-04-25T06:56:50.912Z,101832.97
2023-04-25T06:59:19.166Z,101831.53
2023-04-25T07:01:47.625Z,101831.66
2023-04-25T07:04:16.521Z,101833.47
2023-04-25T07:06:48.641Z,101828.06
2023-04-25T07:09:16.870Z,101830.31
2023-04-25T07:11:44.972Z,101825.16
2023-04-25T07:14:13.300Z,101819.28
2023-04-25T07:16:41.615Z,101816.63
2023-04-25T07:19:09.973Z,101819.47
2023-04-25T07:21:38.654Z,101813.56
2023-04-25T07:24:09.367Z,101823.44
2023-04-25T07:26:37.656Z,101815.78
2023-04-25T07:29:06.095Z,101822.44
2023-04-25T07:31:34.322Z,101819.06
2023-04-25T07:34:02.560Z,101819.56
2023-04-25T07:36:32.072Z,101823.94
2023-04-25T07:39:00.325Z,101817.91
2023-04-25T07:41:29.913Z,101814.06
2023-04-25T07:43:58.176Z,101806.19
2023-04-25T07:46:26.623Z,101814.75
2023-04-25T07:48:54.900Z,101816.59
2023-04-25T07:51:23.354Z,101828.72
2023-04-25T07:53:51.752Z,101827.91
2023-04-25T07:56:19.944Z,101829.03
2023-04-25T07:58:49.986Z,101833.75
2023-04-25T08:01:18.421Z,101831.88
2023-04-25T08:03:46.787Z,101827.22
2023-04-25T08:06:15.271Z,101833.19
2023-04-25T08:08:43.583Z,101835.69
2023-04-25T08:11:11.931Z,101828.94
2023-04-25T08:13:40.112Z,101834.63
2023-04-25T08:16:09.777Z,101838.63
2023-04-25T08:18:38.131Z,101839.47
2023-04-25T08:21:06.417Z,101845.84
2023-04-25T08:27:35.247Z,101850.97
2023-04-25T08:30:04.289Z,101847.63
2023-04-25T08:32:34.914Z,101853.84
2023-04-25T08:35:03.656Z,101857.31
2023-04-25T08:37:32.003Z,101862.69
2023-04-25T08:40:00.250Z,101864.75
2023-04-25T08:42:31.279Z,101863.34
2023-04-25T08:45:02.524Z,101861.97
2023-04-25T08:47:35.766Z,101864.09
2023-04-25T08:50:06.550Z,101859.66
2023-04-25T08:52:39.620Z,101867.16
2023-04-25T08:55:11.964Z,101864.16
2023-04-25T08:57:41.122Z,101863.91
2023-04-25T09:00:10.669Z,101869.16
2023-04-25T09:02:41.929Z,101863.63
2023-04-25T09:05:12.134Z,101859.91
2023-04-25T09:07:40.561Z,101874.16
2023-04-25T09:10:09.283Z,101872.25
2023-04-25T09:12:38.077Z,101876.13
2023-04-25T09:15:08.793Z,101879.44
2023-04-25T09:17:41.397Z,101880.81
2023-04-25T09:20:16.698Z,101885.00
2023-04-25T09:22:48.193Z,101880.56
2023-04-25T09:25:16.329Z,101877.34
2023-04-25T09:27:52.843Z,101881.38
2023-04-25T09:30:30.765Z,101886.06
2023-04-25T09:32:59.805Z,101885.13
2023-04-25T09:35:29.674Z,101893.28
2023-04-25T09:37:58.277Z,101888.56
2023-04-25T09:40:26.541Z,101887.84
2023-04-25T09:42:54.797Z,101889.38
2023-04-25T09:45:23.556Z,101897.97
2023-04-25T09:47:52.661Z,101895.78
2023-04-25T09:50:21.295Z,101899.88
2023-04-25T09:53:05.321Z,101900.69
2023-04-25T09:55:34.465Z,101903.91
2023-04-25T09:58:07.750Z,101915.13
2023-04-25T10:00:36.646Z,101914.03
2023-04-25T10:03:06.798Z,101918.03
2023-04-25T10:05:36.820Z,101911.63
2023-04-25T10:08:08.586Z,101917.19
2023-04-25T10:10:39.621Z,101920.38
2023-04-25T10:13:09.234Z,101914.50
2023-04-25T10:15:40.018Z,101919.03
2023-04-25T10:18:09.103Z,101922.09
2023-04-25T10:20:37.551Z,101923.84
2023-04-25T10:23:16.012Z,101916.78
2023-04-25T10:25:44.666Z,101918.03
2023-04-25T10:28:12.831Z,101921.69
2023-04-25T10:30:59.894Z,101915.97
2023-04-25T10:33:40.713Z,101925.66
2023-04-25T10:36:16.823Z,101919.38
2023-04-25T10:38:48.272Z,101919.34
2023-04-25T10:41:16.587Z,101919.41
2023-04-25T10:43:46.090Z,101919.06
2023-04-25T10:46:21.806Z,101918.78
2023-04-25T10:48:51.862Z,101923.31
2023-04-25T10:51:22.548Z,101921.00
2023-04-25T10:54:01.734Z,101924.84
2023-04-25T10:56:32.403Z,101922.72
2023-04-25T10:59:11.092Z,101923.53
2023-04-25T11:01:42.098Z,101916.69
2023-04-25T11:04:22.807Z,101922.38
2023-04-25T11:07:07.353Z,101922.03
2023-04-25T11:09:38.676Z,101925.06
2023-04-25T11:12:09.665Z,101924.69
2023-04-25T11:14:38.309Z,101923.09
2023-04-25T11:17:06.896Z,101920.00
2023-04-25T11:19:35.154Z,101917.22
2023-04-25T11:22:07.927Z,101915.50
2023-04-25T11:24:38.610Z,101915.88
2023-04-25T11:27:08.011Z,101917.56
2023-04-25T11:29:37.211Z,101917.88
2023-04-25T11:32:05.827Z,101929.59
2023-04-25T11:34:35.652Z,101929.78
2023-04-25T11:37:04.691Z,101928.78
2023-04-25T11:39:33.093Z,101928.31
2023-04-25T11:42:03.850Z,101914.25
2023-04-25T11:44:36.492Z,101914.94
2023-04-25T11:47:04.951Z,101907.50
2023-04-25T11:49:33.628Z,101903.53
2023-04-25T11:52:01.878Z,101904.34
2023-04-25T11:54:29.941Z,101905.13
2023-04-25T11:56:58.729Z,101905.63
2023-04-25T11:59:29.068Z,101908.75
2023-04-25T12:01:58.864Z,101915.19
2023-04-25T12:04:27.863Z,101904.91
2023-04-25T12:06:57.708Z,101904.72
2023-04-25T12:09:31.621Z,101908.72
2023-04-25T12:12:04.108Z,101908.59
2023-04-25T12:14:36.024Z,101923.50
2023-04-25T12:17:09.176Z,101907.97
2023-04-25T12:19:41.272Z,101904.84
2023-04-25T12:22:22.689Z,101908.97
2023-04-25T12:24:50.921Z,101908.31
2023-04-25T12:27:21.072Z,101908.97
2023-04-25T12:29:58.437Z,101912.16
2023-04-25T12:32:27.424Z,101910.16
2023-04-25T12:34:55.756Z,101917.97
2023-04-25T12:37:24.185Z,101913.00
2023-04-25T12:39:53.051Z,101910.31
2023-04-25T12:42:22.188Z,101903.97
2023-04-25T12:44:50.485Z,101903.38
2023-04-25T12:47:19.986Z,101914.09
2023-04-25T12:49:48.316Z,101914.28
2023-04-25T12:52:16.624Z,101902.72
2023-04-25T12:54:44.909Z,101913.03
2023-04-25T12:57:13.568Z,101920.69
2023-04-25T12:59:41.732Z,101912.44
2023-04-25T13:02:10.239Z,101918.03
2023-04-25T13:04:39.918Z,101913.88
2023-04-25T13:07:08.307Z,101901.34
2023-04-25T13:09:36.472Z,101907.78
2023-04-25T13:12:05.445Z,101898.53
2023-04-25T13:14:33.713Z,101898.25
2023-04-25T13:17:01.978Z,101896.06
2023-04-25T13:19:30.265Z,101893.47
2023-04-25T13:22:00.040Z,101892.38
2023-04-25T13:24:28.702Z,101893.13
2023-04-25T13:26:56.991Z,101892.66
2023-04-25T13:29:25.337Z,101902.16
2023-04-25T13:31:53.433Z,101890.47
2023-04-25T13:34:21.836Z,101886.69
2023-04-25T13:36:50.202Z,101886.53
2023-04-25T13:39:19.969Z,101887.81
2023-04-25T13:41:48.338Z,101888.66
2023-04-25T13:44:16.695Z,101880.13
2023-04-25T13:46:47.845Z,101877.31
2023-04-25T13:49:17.050Z,101876.41
2023-04-25T13:51:45.292Z,101878.00
2023-04-25T13:54:13.717Z,101882.69
2023-04-25T13:56:43.751Z,101884.88
2023-04-25T13:59:12.362Z,101872.53
2023-04-25T14:01:40.698Z,101875.44
2023-04-25T14:04:09.163Z,101873.63
2023-04-25T14:06:37.840Z,101877.56
2023-04-25T14:09:08.204Z,101862.50
2023-04-25T14:11:36.400Z,101867.16
2023-04-25T14:14:05.993Z,101866.91
2023-04-25T14:16:34.273Z,101868.06
2023-04-25T14:19:02.889Z,101862.53
2023-04-25T14:21:33.641Z,101855.84
2023-04-25T14:24:01.884Z,101858.56
2023-04-25T14:26:30.128Z,101859.13
2023-04-25T14:28:58.240Z,101858.63
2023-04-25T14:31:28.214Z,101850.91
2023-04-25T14:33:59.106Z,101854.09
2023-04-25T14:36:28.486Z,101850.47
2023-04-25T14:38:56.732Z,101855.00
2023-04-25T14:41:26.055Z,101855.88
2023-04-25T14:43:54.942Z,101851.06
2023-04-25T14:46:24.430Z,101854.47
2023-04-25T14:48:54.460Z,101851.19
2023-04-25T14:51:22.715Z,101857.19
2023-04-25T14:53:51.887Z,101837.44
2023-04-25T14:56:22.065Z,101845.47
2023-04-25T14:58:50.225Z,101846.41
2023-04-25T15:01:18.485Z,101847.97
2023-04-25T15:03:47.025Z,101846.09
2023-04-25T15:06:16.848Z,101852.94
2023-04-25T15:08:45.026Z,101848.84
2023-04-25T15:11:13.220Z,101856.59
2023-04-25T15:13:41.572Z,101847.53
2023-04-25T15:16:10.065Z,101846.00
2023-04-25T15:18:38.768Z,101846.09
2023-04-25T15:21:07.516Z,101846.00
2023-04-25T15:23:37.224Z,101851.00
2023-04-25T15:26:08.239Z,101836.78
2023-04-25T15:28:36.451Z,101851.44
2023-04-25T15:31:04.828Z,101854.47
2023-04-25T15:33:33.491Z,101847.44
2023-04-25T15:36:04.467Z,101853.78
2023-04-25T15:38:32.788Z,101841.47
2023-04-25T15:41:02.850Z,101853.00
2023-04-25T15:43:31.956Z,101843.03
2023-04-25T15:46:00.125Z,101837.19
2023-04-25T15:48:28.429Z,101841.09
2023-04-25T15:50:57.024Z,101846.44
2023-04-25T15:53:25.289Z,101841.38
2023-04-25T15:55:57.431Z,101839.41
2023-04-25T15:58:27.816Z,101836.94
2023-04-25T16:00:57.356Z,101832.78
2023-04-25T16:03:26.113Z,101845.72
2023-04-25T16:05:54.807Z,101836.97
2023-04-25T16:08:23.139Z,101831.84
2023-04-25T16:10:51.431Z,101825.75
2023-04-25T16:13:19.556Z,101825.16
2023-04-25T16:15:49.246Z,101820.16
2023-04-25T16:18:17.640Z,101821.16
2023-04-25T16:20:46.270Z,101817.63
2023-04-25T16:23:14.517Z,101817.03
2023-04-25T16:25:43.142Z,101815.47
2023-04-25T16:28:11.586Z,101814.09
2023-04-25T16:30:39.779Z,101814.31
2023-04-25T16:33:10.111Z,101818.22
2023-04-25T16:35:38.398Z,101807.16
2023-04-25T16:38:06.722Z,101800.66
2023-04-25T16:40:35.141Z,101804.59
2023-04-25T16:43:03.683Z,101801.94
2023-04-25T16:45:32.007Z,101805.69
2023-04-25T16:48:00.294Z,101803.94
2023-04-25T16:50:29.958Z,101801.47
2023-04-25T16:52:58.176Z,101796.19
2023-04-25T16:55:26.524Z,101800.91
2023-04-25T16:57:55.242Z,101794.97
2023-04-25T17:00:23.644Z,101802.50
2023-04-25T17:02:52.374Z,101795.16
2023-04-25T17:05:20.654Z,101808.44
2023-04-25T17:07:50.419Z,101800.91
2023-04-25T17:10:18.668Z,101796.78
2023-04-25T17:12:48.218Z,101797.06
2023-04-25T17:15:16.580Z,101792.88
2023-04-25T17:17:44.823Z,101794.88
2023-04-25T17:20:15.021Z,101802.78
2023-04-25T17:22:43.423Z,101810.25
2023-04-25T17:25:13.637Z,101806.00
2023-04-25T17:27:42.005Z,101812.25
2023-04-25T17:30:10.961Z,101812.94
2023-04-25T17:32:39.481Z,101815.72
2023-04-25T17:35:08.273Z,101817.81
2023-04-25T17:37:36.521Z,101816.44
2023-04-25T17:40:06.804Z,101818.56
2023-04-25T17:42:36.863Z,101818.03
2023-04-25T17:45:05.656Z,101814.88
2023-04-25T17:47:33.939Z,101813.88
2023-04-25T17:50:02.485Z,101807.50
2023-04-25T17:52:30.808Z,101807.50
2023-04-25T17:54:58.871Z,101816.97
2023-04-25T17:57:27.494Z,101821.00
2023-04-25T17:59:57.902Z,101810.16
2023-04-25T18:02:27.178Z,101814.19
2023-04-25T18:04:56.748Z,101818.91
2023-04-25T18:07:24.950Z,101813.38
2023-04-25T18:09:53.141Z,101809.38
2023-04-25T18:12:21.684Z,101815.63
2023-04-25T18:14:49.801Z,101811.75
2023-04-25T18:17:20.199Z,101816.72
2023-04-25T18:19:49.058Z,101817.03
2023-04-25T18:22:17.336Z,101818.84
2023-04-25T18:24:46.407Z,101818.97
2023-04-25T18:27:14.791Z,101822.44
2023-04-25T18:29:45.505Z,101820.63
2023-04-25T18:32:14.370Z,101820.63
2023-04-25T18:34:46.207Z,101825.38
2023-04-25T18:37:14.524Z,101823.69
2023-04-25T18:39:42.912Z,101825.09
2023-04-25T18:42:11.086Z,101828.13
2023-04-25T18:44:40.929Z,101833.41
2023-04-25T18:47:10.233Z,101819.56
2023-04-25T18:49:38.802Z,101822.19
2023-04-25T18:52:10.820Z,101814.28
2023-04-25T18:54:39.360Z,101823.16
2023-04-25T18:57:07.703Z,101816.63
2023-04-25T18:59:36.491Z,101811.50
2023-04-25T19:02:05.599Z,101814.97
2023-04-25T19:04:34.286Z,101820.25
2023-04-25T19:07:02.729Z,101814.56
2023-04-25T19:09:32.563Z,101818.84
2023-04-25T19:12:01.870Z,101805.00
2023-04-25T19:14:30.119Z,101803.75
2023-04-25T19:16:59.567Z,101807.34
2023-04-25T19:19:28.465Z,101811.50
2023-04-25T19:21:56.760Z,101808.88
2023-04-25T19:24:25.094Z,101803.16
2023-04-25T19:26:54.733Z,101797.22
2023-04-25T19:29:23.247Z,101809.25
2023-04-25T19:31:51.747Z,101804.00
2023-04-25T19:34:19.883Z,101814.94
2023-04-25T19:36:48.941Z,101819.38
2023-04-25T19:39:17.130Z,101828.25
2023-04-25T19:41:45.364Z,101819.53
2023-04-25T19:44:15.233Z,101823.00
2023-04-25T19:46:45.943Z,101822.28
2023-04-25T19:49:14.420Z,101821.88
2023-04-25T19:51:43.245Z,101818.41
2023-04-25T19:54:11.532Z,101824.66
2023-04-25T19:56:39.843Z,101829.50
2023-04-25T19:59:08.108Z,101831.72
2023-04-25T20:01:37.691Z,101833.53
2023-04-25T20:04:06.101Z,101827.28
2023-04-25T20:06:34.506Z,101834.47
2023-04-25T20:09:03.976Z,101834.63
2023-04-25T20:11:32.172Z,101834.78
2023-04-25T20:14:00.270Z,101832.81
2023-04-25T20:16:28.889Z,101832.13
2023-04-25T20:18:58.561Z,101819.78
2023-04-25T20:21:27.564Z,101834.63
2023-04-25T20:23:55.769Z,101827.03
2023-04-25T20:26:24.092Z,101835.03
2023-04-25T20:28:53.070Z,101833.63
2023-04-25T20:31:22.444Z,101839.72
2023-04-25T20:33:50.786Z,101835.75
2023-04-25T20:36:20.607Z,101831.97
2023-04-25T20:38:48.815Z,101829.34
2023-04-25T20:41:17.157Z,101832.25
2023-04-25T20:43:46.093Z,101839.19
2023-04-25T20:46:14.396Z,101840.03
2023-04-25T20:48:42.704Z,101834.75
2023-04-25T20:51:12.122Z,101831.41
2023-04-25T20:53:41.799Z,101824.47
2023-04-25T20:56:11.002Z,101822.81
2023-04-25T20:58:39.508Z,101828.66
2023-04-25T21:01:08.264Z,101830.00
2023-04-25T21:03:36.840Z,101830.44
2023-04-25T21:06:05.364Z,101832.78
2023-04-25T21:08:33.599Z,101830.00
2023-04-25T21:11:03.281Z,101835.28
2023-04-25T21:13:31.994Z,101827.50
2023-04-25T21:16:00.906Z,101812.97
2023-04-25T21:18:31.964Z,101817.66
2023-04-25T21:21:01.333Z,101812.97
2023-04-25T21:23:29.838Z,101820.03
2023-04-25T21:25:57.999Z,101820.69
2023-04-25T21:28:27.724Z,101821.25
2023-04-25T21:30:56.037Z,101823.91
2023-04-25T21:33:24.722Z,101827.25
2023-04-25T21:35:53.698Z,101829.72
2023-04-25T21:38:21.796Z,101829.59
2023-04-25T21:40:50.079Z,101835.81
2023-04-25T21:43:18.514Z,101822.50
2023-04-25T21:46:14.661Z,101822.25
2023-04-25T21:48:36.267Z,101811.44
2023-04-25T21:51:04.504Z,101825.56
2023-04-25T21:53:33.057Z,101820.28
2023-04-25T21:56:01.377Z,101821.97
2023-04-25T21:58:29.557Z,101826.41
2023-04-25T22:01:00.677Z,101825.03
2023-04-25T22:03:29.210Z,101826.00
2023-04-25T22:05:57.776Z,101820.28
2023-04-25T22:08:25.900Z,101826.28
2023-04-25T22:10:55.766Z,101822.09
2023-04-25T22:13:24.053Z,101826.94
2023-04-25T22:15:52.724Z,101825.03
2023-04-25T22:18:22.316Z,101826.94
2023-04-25T22:20:50.876Z,101829.88
2023-04-25T22:23:19.127Z,101828.75
2023-04-25T22:25:48.833Z,101816.31
2023-04-25T22:28:17.011Z,101821.56
2023-04-25T22:30:45.196Z,101822.25
2023-04-25T22:33:13.375Z,101825.84
2023-04-25T22:35:43.000Z,101821.44
2023-04-25T22:38:11.486Z,101823.38
2023-04-25T22:40:39.821Z,101823.09
2023-04-25T22:43:07.942Z,101826.44
2023-04-25T22:45:36.375Z,101822.97
2023-04-25T22:48:04.696Z,101814.94
2023-04-25T22:50:33.144Z,101820.03
2023-04-25T22:53:04.138Z,101814.63
2023-04-25T22:55:32.476Z,101821.69
2023-04-25T22:58:01.325Z,101819.47
2023-04-25T23:00:30.448Z,101814.09
2023-04-25T23:02:58.769Z,101808.25
2023-04-25T23:05:27.565Z,101807.59
2023-04-25T23:07:56.182Z,101807.59
2023-04-25T23:10:26.003Z,101798.97
2023-04-25T23:12:54.901Z,101799.53
2023-04-25T23:15:23.193Z,101799.41
2023-04-25T23:17:51.631Z,101797.59
2023-04-25T23:20:21.182Z,101800.38
2023-04-25T23:22:49.879Z,101804.66
2023-04-25T23:25:19.235Z,101798.72
2023-04-25T23:27:49.297Z,101802.16
2023-04-25T23:30:17.903Z,101797.75
2023-04-25T23:32:46.352Z,101803.97
2023-04-25T23:35:19.637Z,101798.97
2023-04-25T23:37:49.282Z,101803.16
2023-04-25T23:40:17.482Z,101810.06
2023-04-25T23:42:45.769Z,101811.88
2023-04-25T23:45:16.743Z,101809.25
2023-04-25T23:47:45.066Z,101802.84
2023-04-25T23:50:13.392Z,101801.19
2023-04-25T23:52:41.688Z,101796.06
2023-04-25T23:55:10.830Z,101798.81
2023-04-25T23:57:39.098Z,101793.72
